Latest Weather Observations for St George

IDQ60801

Issued at 3:02 pm EST Saturday 30 April 2016 (issued every 30 minutes, with the page automatically refreshed every 10 minutes)

About weather observations | Map of weather stations | Latest weather observations for QLD | Other Formats
Station Details ID: 043109 Name: ST GEORGE AIRPORT Lat: -28.05 Lon: 148.59 Height: 198.5 m
Data from the previous 72 hours. | See also: Recent months at St George
Date/Time
EST
Temp
°C
App
Temp
°C
Dew
Point
Rel
Hum
%
Delta-T
°C
Wind Press
QNH
hPa
Press
MSL
hPa
Rain
since 9 am
mm
Dir
 
Spd
km/h
Gust
km/h
Spd
kts
Gust
kts
30/03:00pm 31.0 30.0 12.4 32 11.1 NW 9 24 5 13 1015.8 1015.1 0.0
30/02:30pm 30.4 28.8 12.8 34 10.5 N 13 24 7 13 1016.0 - 0.0
30/02:00pm 30.9 29.4 13.2 34 10.7 NNW 13 22 7 12 1016.1 - 0.0
30/01:30pm 30.3 28.3 12.7 34 10.5 N 15 20 8 11 1016.6 - 0.0
30/01:00pm 30.8 29.4 14.4 36 10.0 N 15 20 8 11 1017.1 - 0.0
30/12:30pm 29.6 28.4 15.0 41 9.0 NNW 15 28 8 15 1017.6 - 0.0
30/12:00pm 29.0 27.1 15.2 43 8.5 N 19 28 10 15 1018.2 1017.5 0.0
30/11:30am 28.0 26.1 15.3 46 7.8 N 19 26 10 14 1018.8 - 0.0
30/11:00am 28.5 26.6 15.8 46 7.9 N 20 30 11 16 1019.2 - 0.0
30/10:30am 27.1 25.5 16.4 52 6.7 N 20 30 11 16 1019.6 - 0.0
30/10:00am 26.3 23.7 16.0 53 6.4 N 24 32 13 17 1020.0 - 0.0
30/09:30am 25.9 23.0 16.2 55 6.0 N 26 35 14 19 1020.0 - 0.0
30/09:00am 24.7 21.7 15.9 58 5.4 N 26 33 14 18 1020.0 1019.3 0.0
30/08:30am 23.6 20.8 16.4 64 4.4 N 26 35 14 19 1020.2 - 0.0
30/08:00am 23.2 20.8 16.3 65 4.2 N 24 35 13 19 1020.0 - 0.0
30/07:30am 22.3 20.5 15.9 67 3.9 N 20 30 11 16 1019.9 - 0.0
30/07:00am 22.1 20.5 16.1 69 3.7 N 19 32 10 17 1019.5 - 0.0
30/06:30am 21.7 20.0 15.8 69 3.6 N 19 26 10 14 1019.2 - 0.0
30/06:00am 21.9 20.3 16.0 69 3.6 NNE 19 26 10 14 1018.9 1018.2 0.0
30/05:30am 22.1 20.8 15.7 67 3.9 NNE 17 26 9 14 1018.6 - 0.0
30/05:00am 22.1 20.8 15.7 67 3.9 NNE 17 24 9 13 1018.4 - 0.0
30/04:30am 22.0 20.9 15.4 66 4.0 NNE 15 19 8 10 1018.4 - 0.0
30/04:00am 22.0 20.8 15.1 65 4.1 NNE 15 20 8 11 1018.2 - 0.0
30/03:30am 22.2 21.3 14.8 63 4.4 NNE 13 19 7 10 1018.1 - 0.0
30/03:00am 22.6 20.9 14.7 61 4.7 NNE 17 22 9 12 1018.1 1017.4 0.0
30/02:30am 22.9 21.9 14.5 59 5.0 NNE 13 20 7 11 1018.2 - 0.0
30/02:00am 23.2 21.3 14.2 57 5.3 NNE 17 20 9 11 1018.3 - 0.0
30/01:30am 23.5 21.5 13.9 55 5.7 NNE 17 24 9 13 1018.2 - 0.0
30/01:00am 24.0 21.6 13.8 53 6.0 NNE 19 26 10 14 1018.3 - 0.0
30/12:30am 23.8 22.0 13.4 52 6.1 NNE 15 22 8 12 1018.5 - 0.0
30/12:00am 23.7 21.8 13.0 51 6.2 NNE 15 19 8 10 1018.5 1017.8 0.0
 
Date/Time
EST
Temp
°C
App
Temp
°C
Dew
Point
Rel
Hum
%
Delta-T
°C
Wind Press
QNH
hPa
Press
MSL
hPa
Rain
since 9 am
mm
Dir
 
Spd
km/h
Gust
km/h
Spd
kts
Gust
kts
29/11:30pm 23.3 21.6 12.6 51 6.2 NE 13 17 7 9 1018.8 - 0.0
29/11:00pm 22.3 21.2 12.0 52 5.9 NE 9 11 5 6 1018.9 - 0.0
29/10:30pm 21.8 21.0 11.8 53 5.6 NE 7 9 4 5 1019.3 - 0.0
29/10:00pm 20.4 19.5 11.3 56 5.1 ENE 7 9 4 5 1019.3 - 0.0
29/09:30pm 20.4 19.6 11.1 55 5.2 ENE 6 7 3 4 1019.3 - 0.0
29/09:00pm 20.8 21.1 10.9 53 5.5 CALM 0 0 0 0 1019.4 1018.7 0.0
29/08:30pm 21.4 21.6 10.6 50 6.0 CALM 0 0 0 0 1019.1 - 0.0
29/08:00pm 22.1 22.2 10.3 47 6.5 CALM 0 0 0 0 1019.0 - 0.0
29/07:30pm 22.9 23.1 10.7 46 6.8 CALM 0 0 0 0 1019.0 - 0.0
29/07:00pm 23.5 23.6 10.2 43 7.4 CALM 0 0 0 0 1018.8 - 0.0
29/06:30pm 25.6 24.9 10.2 38 8.6 NE 4 7 2 4 1018.5 - 0.0
29/06:00pm 26.9 25.4 10.6 36 9.2 ENE 9 11 5 6 1018.1 1017.4 0.0
29/05:30pm 27.8 26.7 10.5 34 9.8 ENE 7 11 4 6 1017.8 - 0.0
29/05:00pm 28.6 27.0 10.3 32 10.4 NNE 9 13 5 7 1017.7 - 0.0
29/04:30pm 29.1 26.8 10.3 31 10.7 NNE 13 17 7 9 1017.5 - 0.0
29/04:00pm 28.8 26.4 10.0 31 10.7 N 13 22 7 12 1017.4 - 0.0
29/03:30pm 28.9 26.5 10.1 31 10.7 NNE 13 17 7 9 1017.3 - 0.0
29/03:00pm 29.6 27.2 10.2 30 11.1 NE 13 19 7 10 1017.4 1016.7 0.0
29/02:30pm 29.1 26.4 10.3 31 10.7 N 15 24 8 13 1017.6 - 0.0
29/02:00pm 28.8 25.5 10.9 33 10.3 N 19 24 10 13 1018.1 - 0.0
29/01:30pm 28.4 25.6 11.5 35 9.8 NNE 17 22 9 12 1018.2 - 0.0
29/01:00pm 28.9 25.9 11.9 35 9.9 N 19 35 10 19 1018.7 - 0.0
29/12:30pm 28.1 25.4 11.6 36 9.6 N 17 24 9 13 1019.4 - 0.0
29/12:00pm 27.3 23.9 11.3 37 9.2 NNE 20 28 11 15 1020.1 1019.4 0.0
29/11:30am 27.1 24.4 11.6 38 8.9 NE 17 26 9 14 1020.7 - 0.0
29/11:00am 26.4 22.6 11.3 39 8.6 NNE 22 33 12 18 1021.3 - 0.0
29/10:30am 26.3 23.5 13.1 44 7.8 NNE 20 26 11 14 1022.1 - 0.0
29/10:00am 25.6 22.1 13.5 47 7.2 NNE 24 35 13 19 1022.6 - 0.0
29/09:30am 23.6 19.9 14.0 55 5.7 NNE 26 37 14 20 1022.8 - 0.0
29/09:00am 22.8 19.5 14.1 58 5.1 NNE 24 35 13 19 1022.9 1022.2 0.0
29/08:30am 21.7 19.3 14.4 63 4.3 NNE 20 30 11 16 1023.2 - 0.0
29/07:30am 19.9 19.0 13.8 68 3.5 NE 11 17 6 9 1022.7 - 0.0
29/07:00am 18.9 18.0 13.7 72 3.0 NE 11 15 6 8 1022.4 - 0.0
29/06:30am 17.8 17.2 13.5 76 2.5 ENE 9 13 5 7 1022.3 - 0.0
29/06:00am 18.2 17.9 13.3 73 2.8 ENE 7 9 4 5 1022.0 1021.3 0.0
29/05:30am 19.3 19.2 13.9 71 3.1 ENE 7 11 4 6 1021.4 - 0.0
29/05:00am 19.9 19.0 13.8 68 3.5 NE 11 15 6 8 1021.1 - 0.0
29/04:30am 20.5 19.4 14.2 67 3.7 NNE 13 19 7 10 1020.8 - 0.0
29/04:00am 20.9 19.4 14.3 66 3.9 NNE 15 20 8 11 1020.6 - 0.0
29/03:30am 21.1 19.2 14.3 65 4.0 NNE 17 24 9 13 1020.5 - 0.0
29/03:00am 20.8 19.8 13.5 63 4.2 NE 11 17 6 9 1020.3 1019.6 0.0
29/02:30am 21.1 19.2 13.0 60 4.7 NE 15 20 8 11 1020.3 - 0.0
29/02:00am 21.6 18.7 13.0 58 5.0 NE 20 32 11 17 1020.1 - 0.0
29/01:30am 21.9 19.8 12.5 55 5.4 NE 15 24 8 13 1020.6 - 0.0
29/01:00am 21.8 19.0 11.5 52 5.8 NE 17 24 9 13 1020.4 - 0.0
29/12:30am 21.5 19.2 10.3 49 6.2 ENE 13 19 7 10 1020.5 - 0.0
29/12:00am 20.1 18.3 9.4 50 5.7 E 9 13 5 7 1020.7 1020.0 0.0
 
Date/Time
EST
Temp
°C
App
Temp
°C
Dew
Point
Rel
Hum
%
Delta-T
°C
Wind Press
QNH
hPa
Press
MSL
hPa
Rain
since 9 am
mm
Dir
 
Spd
km/h
Gust
km/h
Spd
kts
Gust
kts
28/11:30pm 19.1 17.3 9.3 53 5.2 E 9 11 5 6 1020.6 - 0.0
28/11:00pm 18.8 18.8 9.8 56 4.8 CALM 0 0 0 0 1020.8 - 0.0
28/10:30pm 19.2 19.2 9.9 55 5.0 CALM 0 0 0 0 1020.7 - 0.0
28/10:00pm 19.3 19.1 8.9 51 5.5 CALM 0 0 0 0 1020.8 - 0.0
28/09:30pm 20.9 19.2 8.2 44 6.7 ENE 7 9 4 5 1020.4 - 0.0
28/09:00pm 22.7 21.1 8.8 41 7.5 ENE 7 11 4 6 1020.6 1019.9 0.0
28/08:30pm 23.3 21.3 8.6 39 7.9 ENE 9 11 5 6 1020.3 - 0.0
28/08:00pm 23.8 21.8 8.6 38 8.2 ENE 9 13 5 7 1020.1 - 0.0
28/07:30pm 24.2 22.2 8.6 37 8.4 ENE 9 13 5 7 1020.1 - 0.0
28/07:00pm 24.8 22.4 8.7 36 8.7 ENE 11 13 6 7 1019.9 - 0.0
28/06:30pm 25.3 22.9 8.7 35 9.0 ENE 11 13 6 7 1019.7 - 0.0
28/06:00pm 25.9 23.8 8.4 33 9.5 E 9 11 5 6 1019.7 1019.0 0.0
28/05:30pm 27.3 24.5 8.7 31 10.2 E 13 19 7 10 1019.4 - 0.0
28/05:00pm 28.2 25.4 8.5 29 10.9 E 13 19 7 10 1019.3 - 0.0
28/04:30pm 28.8 26.8 8.5 28 11.2 ENE 9 19 5 10 1019.2 - 0.0
28/04:00pm 28.4 26.0 8.7 29 10.9 E 11 22 6 12 1019.2 - 0.0
28/03:30pm 28.9 26.6 9.1 29 11.1 N 11 19 6 10 1019.1 - 0.0
28/03:00pm 28.9 26.6 9.1 29 11.0 E 11 20 6 11 1019.3 1018.6 0.0
28/02:30pm 28.6 25.9 8.8 29 11.0 NNE 13 20 7 11 1019.5 - 0.0
28/02:00pm 28.1 25.5 9.4 31 10.5 ENE 13 20 7 11 1019.8 - 0.0
28/01:30pm 27.8 26.4 9.6 32 10.2 NNE 7 17 4 9 1020.1 - 0.0
28/01:00pm 27.4 24.9 9.7 33 9.9 ENE 13 20 7 11 1020.4 - 0.0
28/12:30pm 26.9 24.4 9.7 34 9.6 NNE 13 24 7 13 1021.1 - 0.0
28/12:00pm 26.7 24.1 10.8 37 9.0 N 15 22 8 12 1021.8 1021.1 0.0
28/11:30am 25.8 22.6 11.2 40 8.3 N 19 28 10 15 1022.2 - 0.0
28/11:00am 25.7 23.4 11.8 42 8.0 NE 15 24 8 13 1022.7 - 0.0
28/10:30am 24.9 22.5 12.5 46 7.2 NNE 17 24 9 13 1023.1 - 0.0
28/10:00am 23.4 20.4 12.1 49 6.5 NNE 19 26 10 14 1023.4 - 0.0
28/09:30am 22.3 20.0 13.1 56 5.3 ENE 17 24 9 13 1023.5 - 0.0
28/09:00am 22.0 20.0 13.9 60 4.7 NE 17 28 9 15 1023.5 1022.8 0.0
28/08:30am 20.6 18.2 13.8 65 4.0 NE 19 30 10 16 1023.2 - 0.0
28/08:00am 19.9 18.3 13.8 68 3.5 NE 15 22 8 12 1022.9 - 0.0
28/07:30am 18.6 17.8 13.9 74 2.7 ENE 11 13 6 7 1022.8 - 0.0
28/07:00am 17.5 16.9 13.6 78 2.2 ENE 9 11 5 6 1022.6 - 0.0
28/06:30am 16.9 16.6 13.2 79 2.1 E 7 9 4 5 1022.3 - 0.0
28/06:00am 17.4 16.7 13.3 77 2.3 ENE 9 13 5 7 1021.9 1021.2 0.0
28/05:30am 17.8 17.1 13.3 75 2.6 NE 9 15 5 8 1021.9 - 0.0
28/05:00am 18.0 17.3 13.3 74 2.7 ENE 9 11 5 6 1021.5 - 0.0
28/04:30am 18.1 17.4 13.2 73 2.8 NE 9 13 5 7 1021.4 - 0.0
28/04:00am 18.6 18.0 13.5 72 2.9 NE 9 13 5 7 1021.2 - 0.0
28/03:30am 19.2 17.9 13.6 70 3.2 ENE 13 19 7 10 1021.0 - 0.0
28/03:00am 19.2 18.2 13.4 69 3.3 NE 11 15 6 8 1020.9 1020.2 0.0
28/02:30am 19.7 18.2 13.2 66 3.7 NE 13 20 7 11 1020.9 - 0.0
28/02:00am 20.2 18.7 13.2 64 4.0 NE 13 19 7 10 1021.0 - 0.0
28/01:30am 20.4 18.4 12.6 61 4.4 NNE 15 24 8 13 1021.2 - 0.0
28/01:00am 20.8 18.6 12.0 57 5.0 NE 15 22 8 12 1021.1 - 0.0
28/12:30am 21.1 18.8 11.7 55 5.3 NE 15 22 8 12 1021.1 - 0.0
28/12:00am 19.9 18.0 9.2 50 5.7 NE 9 13 5 7 1021.2 1020.5 0.0
 
Date/Time
EST
Temp
°C
App
Temp
°C
Dew
Point
Rel
Hum
%
Delta-T
°C
Wind Press
QNH
hPa
Press
MSL
hPa
Rain
since 9 am
mm
Dir
 
Spd
km/h
Gust
km/h
Spd
kts
Gust
kts
27/11:30pm 20.4 18.3 8.1 45 6.4 NE 9 11 5 6 1021.1 - 0.0
27/11:00pm 21.3 18.8 8.2 43 6.9 ENE 11 17 6 9 1021.2 - 0.0
27/10:30pm 20.9 17.9 7.9 43 6.8 ENE 13 17 7 9 1021.4 - 0.0
27/10:00pm 18.0 15.9 6.5 47 5.8 E 7 9 4 5 1021.4 - 0.0
27/09:30pm 17.8 15.7 6.0 46 5.8 E 6 7 3 4 1021.4 - 0.0
27/09:00pm 18.6 17.5 7.1 47 5.8 ESE 2 9 1 5 1021.3 1020.6 0.0
27/08:30pm 18.9 18.1 6.7 45 6.2 CALM 0 0 0 0 1021.2 - 0.0
27/08:00pm 20.1 18.1 6.4 41 6.9 ESE 6 7 3 4 1021.2 - 0.0
27/07:30pm 20.4 18.6 7.1 42 6.8 SE 6 9 3 5 1021.1 - 0.0
27/07:00pm 20.8 18.7 5.6 37 7.6 SE 6 6 3 3 1021.0 - 0.0
27/06:30pm 23.7 21.5 6.0 32 9.1 E 7 9 4 5 1020.7 - 0.0
27/06:00pm 24.8 22.6 6.1 30 9.7 E 7 9 4 5 1020.5 1019.8 0.0
27/05:30pm 26.1 22.4 6.2 28 10.4 E 15 19 8 10 1020.0 - 0.0
27/05:00pm 26.7 24.0 7.2 29 10.4 E 11 17 6 9 1019.7 - 0.0
27/04:30pm 27.4 24.3 7.3 28 10.8 ENE 13 19 7 10 1019.6 - 0.0
27/04:00pm 27.8 24.4 7.6 28 10.9 E 15 32 8 17 1019.5 - 0.0
27/03:30pm 27.7 24.4 8.1 29 10.7 E 15 24 8 13 1019.5 - 0.0

Other Formats:

Comma delimited format used in spreadsheet applications
http://www.bom.gov.au/fwo/IDQ60801/IDQ60801.94517.axf

JavaScript Object Notation format (JSON) in row-major order
http://www.bom.gov.au/fwo/IDQ60801/IDQ60801.94517.json